Time;durP1;ratioP1;P1;durP2;ratioP2;P2;SDS_P1;SDS_P2;PMS_P1;PMS_P2;Temp;Humidity;BMP_temperature;BMP_pressure;BME280_temperature;BME280_humidity;BME280_pressure;Samples;Min_cycle;Max_cycle;Signal;HPM_P1;HPM_P2
2023/05/20 00:02:00;;;;;;;;;2.00;2.00;;;;;23.00;33.34;102164.19;6302526;22;45403;-75
2023/05/20 00:04:25;;;;;;;;;4.00;4.00;;;;;23.00;33.34;102161.53;6303774;22;47068;-76
2023/05/20 00:06:50;;;;;;;;;4.50;3.00;;;;;22.95;33.19;102148.72;6303838;22;45331;-75
2023/05/20 00:09:16;;;;;;;;;3.00;3.00;;;;;22.94;33.20;102145.22;6304210;22;45331;-76
2023/05/20 00:11:42;;;;;;;;;3.50;3.50;;;;;22.91;33.12;102134.06;6303813;22;45227;-76
2023/05/20 00:14:07;;;;;;;;;5.75;4.75;;;;;22.94;33.43;102139.06;6304002;22;45300;-75
2023/05/20 00:16:33;;;;;;;;;4.00;4.00;;;;;23.02;32.96;102146.25;6303889;22;50356;-75
2023/05/20 00:18:58;;;;;;;;;2.75;2.00;;;;;23.01;32.84;102145.44;6304781;22;45232;-75
2023/05/20 00:21:23;;;;;;;;;4.00;4.00;;;;;22.72;32.62;102096.97;6305899;22;45217;-75
2023/05/20 00:23:49;;;;;;;;;4.67;4.00;;;;;22.92;33.28;102131.28;6305399;22;45263;-75
2023/05/20 00:26:15;;;;;;;;;4.00;3.00;;;;;23.01;32.69;102133.97;6304704;22;45813;-75
2023/05/20 00:28:40;;;;;;;;;4.33;4.33;;;;;22.96;33.16;102129.97;6305546;22;45304;-76
2023/05/20 00:31:06;;;;;;;;;2.67;2.33;;;;;23.01;33.13;102145.44;6305450;22;47657;-76
2023/05/20 00:33:31;;;;;;;;;4.00;3.00;;;;;22.92;32.77;102123.31;6304858;22;46096;-77
2023/05/20 00:35:56;;;;;;;;;4.25;3.50;;;;;23.03;32.56;102143.44;6305218;22;45301;-75
2023/05/20 00:38:22;;;;;;;;;2.67;2.67;;;;;22.86;32.59;102108.00;6305543;22;45228;-76
2023/05/20 00:40:47;;;;;;;;;3.25;2.75;;;;;22.89;33.05;102114.81;6304918;22;45305;-77
2023/05/20 00:43:12;;;;;;;;;3.00;2.00;;;;;22.95;32.89;102124.84;6304849;22;47131;-74
2023/05/20 00:45:38;;;;;;;;;4.50;3.00;;;;;22.93;32.71;102122.31;6305207;22;45131;-75
2023/05/20 00:48:04;;;;;;;;;3.00;3.00;;;;;23.02;32.84;102125.88;6303713;22;45369;-76
2023/05/20 00:50:31;;;;;;;;;5.75;2.50;;;;;23.01;32.49;102123.34;6305041;22;45214;-74
2023/05/20 00:52:57;;;;;;;;;3.00;2.25;;;;;22.95;32.55;102112.38;6304815;22;46552;-75
2023/05/20 00:55:23;;;;;;;;;4.50;3.75;;;;;23.01;32.82;102123.34;6304136;22;45338;-74
2023/05/20 00:57:49;;;;;;;;;4.75;4.00;;;;;22.92;32.60;102104.75;6304986;22;45384;-75
2023/05/20 01:00:15;;;;;;;;;4.00;3.33;;;;;22.91;32.97;102099.56;6305515;22;45237;-75
2023/05/20 01:02:40;;;;;;;;;3.00;3.00;;;;;22.86;32.63;102094.75;6304708;22;46326;-75
2023/05/20 01:05:06;;;;;;;;;6.00;3.00;;;;;22.88;33.13;102086.59;6305409;22;45744;-75
2023/05/20 01:07:32;;;;;;;;;3.00;3.00;;;;;23.00;32.67;102113.75;6305264;22;45106;-75
2023/05/20 01:09:58;;;;;;;;;2.33;2.33;;;;;22.99;32.89;102107.59;6305043;22;45127;-76
2023/05/20 01:12:32;;;;;;;;;5.00;4.00;;;;;22.95;32.89;102101.75;6305221;22;46389;-75
2023/05/20 01:15:07;;;;;;;;;4.00;3.00;;;;;22.93;32.97;102087.81;6305164;22;45258;-75
2023/05/20 01:17:38;;;;;;;;;2.00;2.00;;;;;22.96;32.80;102105.25;6305060;22;45174;-74
2023/05/20 01:20:06;;;;;;;;;2.33;2.33;;;;;22.88;33.17;102090.09;6305035;22;45422;-74
2023/05/20 01:22:32;;;;;;;;;5.33;4.00;;;;;22.84;32.93;102078.16;6304324;22;46103;-76
2023/05/20 01:24:57;;;;;;;;;4.33;2.33;;;;;22.96;32.68;102092.81;6304747;22;45237;-75
2023/05/20 01:27:23;;;;;;;;;5.67;3.00;;;;;22.93;33.22;102089.63;6305066;22;45199;-75
2023/05/20 01:29:50;;;;;;;;;3.25;3.25;;;;;22.93;32.59;102086.97;6304330;22;45411;-73
2023/05/20 01:32:26;;;;;;;;;2.67;2.67;;;;;22.94;33.17;102093.97;6305287;22;46036;-74
2023/05/20 01:34:53;;;;;;;;;4.00;3.00;;;;;22.87;32.88;102088.47;6304968;22;45300;-75
2023/05/20 01:37:20;;;;;;;;;3.33;3.33;;;;;22.93;33.38;102098.44;6304525;22;45307;-75
2023/05/20 01:39:48;;;;;;;;;3.00;2.00;;;;;22.89;32.99;102083.81;6305288;22;45305;-75
2023/05/20 01:42:15;;;;;;;;;2.33;2.33;;;;;22.92;32.79;102088.81;6305030;22;45255;-75
2023/05/20 01:44:40;;;;;;;;;4.00;2.67;;;;;22.93;33.34;102086.97;6304660;22;45292;-76
2023/05/20 01:47:06;;;;;;;;;1.67;1.67;;;;;22.94;33.17;102086.00;6305229;22;45398;-76
2023/05/20 01:49:31;;;;;;;;;5.00;2.50;;;;;22.94;33.11;102088.66;6305048;22;45346;-75
2023/05/20 01:51:57;;;;;;;;;5.00;4.50;;;;;22.91;33.07;102067.72;6304781;22;45906;-75
2023/05/20 01:54:22;;;;;;;;;2.00;2.00;;;;;22.91;33.34;102068.56;6305048;22;45431;-76
2023/05/20 01:56:49;;;;;;;;;6.00;3.00;;;;;22.96;33.29;102070.75;6304964;22;45240;-76
2023/05/20 01:59:14;;;;;;;;;4.33;3.00;;;;;22.99;33.49;102077.56;6305530;22;45265;-75
2023/05/20 02:01:39;;;;;;;;;3.67;3.00;;;;;22.93;32.97;102061.28;6304925;22;45193;-76
2023/05/20 02:04:05;;;;;;;;;2.33;2.33;;;;;23.01;32.89;102078.22;6304745;22;45264;-75
2023/05/20 02:06:30;;;;;;;;;3.00;2.00;;;;;22.98;33.35;102065.31;6304235;22;45290;-75
2023/05/20 02:08:56;;;;;;;;;3.00;3.00;;;;;23.02;33.06;102069.28;6305226;22;45421;-76
2023/05/20 02:11:21;;;;;;;;;3.00;3.00;;;;;22.94;33.33;102065.59;6304452;22;45302;-75
2023/05/20 02:13:46;;;;;;;;;3.00;3.00;;;;;23.00;33.45;102080.06;6304430;22;45175;-75
2023/05/20 02:16:12;;;;;;;;;3.00;3.00;;;;;22.99;33.23;102078.41;6304959;22;45208;-75
2023/05/20 02:18:37;;;;;;;;;3.00;3.00;;;;;22.90;33.01;102056.28;6305234;22;45407;-76
2023/05/20 02:21:04;;;;;;;;;5.00;3.00;;;;;22.88;33.40;102049.47;6304566;22;46104;-76
2023/05/20 02:23:30;;;;;;;;;4.00;3.00;;;;;22.92;33.30;102054.31;6304996;22;45301;-75
2023/05/20 02:25:56;;;;;;;;;4.67;2.00;;;;;22.93;33.34;102052.47;6305212;22;45347;-75
2023/05/20 02:28:21;;;;;;;;;4.00;3.00;;;;;22.98;33.21;102060.00;6304769;22;45266;-76
2023/05/20 02:30:46;;;;;;;;;2.33;2.33;;;;;22.96;33.14;102063.63;6304531;22;45260;-76
2023/05/20 02:33:12;;;;;;;;;2.00;2.00;;;;;22.95;33.34;102067.25;6305056;22;45285;-75
2023/05/20 02:35:38;;;;;;;;;5.00;3.00;;;;;22.90;33.24;102050.97;6304203;22;45244;-75
2023/05/20 02:38:04;;;;;;;;;5.00;3.67;;;;;22.94;33.57;102060.31;6304715;22;45315;-75
2023/05/20 02:40:29;;;;;;;;;3.33;3.00;;;;;22.91;33.09;102060.59;6304671;22;45947;-75
2023/05/20 02:42:54;;;;;;;;;3.67;3.67;;;;;22.86;33.53;102046.97;6304386;22;45325;-76
2023/05/20 02:45:20;;;;;;;;;3.33;3.33;;;;;22.82;33.66;102041.13;6305379;22;45273;-75
2023/05/20 02:47:45;;;;;;;;;5.00;4.00;;;;;22.88;33.48;102039.69;6302874;22;45274;-76
2023/05/20 02:50:10;;;;;;;;;3.00;3.00;;;;;22.87;33.28;102043.34;6304482;22;45274;-75
2023/05/20 02:52:36;;;;;;;;;4.50;3.25;;;;;22.89;33.22;102037.88;6304460;22;45217;-75
2023/05/20 02:55:01;;;;;;;;;6.33;2.33;;;;;22.78;33.76;102023.03;6304954;22;45226;-75
2023/05/20 02:57:27;;;;;;;;;3.00;3.00;;;;;22.89;33.17;102040.53;6303263;22;45236;-75
2023/05/20 02:59:53;;;;;;;;;7.00;4.33;;;;;22.90;33.22;102043.00;6304323;22;47271;-75
2023/05/20 03:02:18;;;;;;;;;5.00;4.00;;;;;22.91;33.41;102038.53;6304446;22;45328;-75
2023/05/20 03:04:45;;;;;;;;;3.50;3.50;;;;;22.91;33.26;102043.84;6304353;22;45222;-75
2023/05/20 03:07:10;;;;;;;;;4.00;4.00;;;;;22.83;33.43;102032.19;6302918;22;45496;-76
2023/05/20 03:09:36;;;;;;;;;3.33;3.33;;;;;22.90;33.31;102043.00;6304299;22;45883;-75
2023/05/20 03:12:02;;;;;;;;;3.50;3.50;;;;;22.91;33.16;102027.91;6303771;22;45297;-75
2023/05/20 03:14:27;;;;;;;;;4.33;3.00;;;;;22.91;33.64;102027.91;6304302;22;45347;-75
2023/05/20 03:16:54;;;;;;;;;3.50;3.50;;;;;22.78;33.63;102002.66;6304991;22;45256;-75
2023/05/20 03:19:20;;;;;;;;;3.25;2.25;;;;;22.89;33.82;102022.78;6303880;22;46468;-75
2023/05/20 03:21:45;;;;;;;;;3.00;2.00;;;;;22.90;33.01;102027.09;6304606;22;45261;-75
2023/05/20 03:24:11;;;;;;;;;4.75;3.25;;;;;22.90;33.75;102029.75;6304867;22;45193;-75
2023/05/20 03:26:41;;;;;;;;;4.00;4.00;;;;;22.86;33.83;102015.13;6304876;22;45151;-75
2023/05/20 03:29:07;;;;;;;;;3.00;3.00;;;;;22.93;33.89;102028.59;6304218;22;46373;-75
2023/05/20 03:31:32;;;;;;;;;3.00;3.00;;;;;22.83;33.35;101995.06;6304080;22;45288;-76
2023/05/20 03:33:57;;;;;;;;;2.67;2.67;;;;;22.84;33.26;102009.16;6304350;22;45232;-75
2023/05/20 03:36:23;;;;;;;;;3.00;3.00;;;;;22.88;33.74;102009.66;6304422;22;45249;-75
2023/05/20 03:38:48;;;;;;;;;4.33;4.33;;;;;22.93;33.86;102024.13;6304474;22;45324;-74
2023/05/20 03:41:13;;;;;;;;;3.00;2.75;;;;;22.94;33.25;102022.31;6304161;22;45324;-76
2023/05/20 03:43:39;;;;;;;;;2.25;2.25;;;;;22.95;33.74;102018.69;6304823;22;45295;-75
2023/05/20 03:46:04;;;;;;;;;1.33;1.33;;;;;22.92;33.68;102009.22;6304029;22;45282;-76
2023/05/20 03:48:30;;;;;;;;;5.50;4.00;;;;;22.85;33.78;101997.53;6303722;22;46035;-75
2023/05/20 03:50:55;;;;;;;;;3.25;2.75;;;;;22.85;33.72;101998.38;6304050;22;45421;-76
2023/05/20 03:53:21;;;;;;;;;3.33;3.00;;;;;22.95;33.34;102019.47;6304513;22;45221;-75
2023/05/20 03:55:46;;;;;;;;;2.50;2.50;;;;;22.90;33.24;101999.75;6305889;22;45225;-76
2023/05/20 03:58:12;;;;;;;;;3.00;2.50;;;;;22.94;33.93;102017.84;6305610;22;45935;-75
2023/05/20 04:00:38;;;;;;;;;2.50;2.50;;;;;22.81;33.87;101980.28;6305393;22;45215;-75
2023/05/20 04:03:04;;;;;;;;;2.75;2.00;;;;;22.94;33.42;102009.88;6303224;22;45686;-75
2023/05/20 04:05:30;;;;;;;;;5.00;2.50;;;;;22.91;33.82;102009.34;6305744;22;45411;-76
2023/05/20 04:07:56;;;;;;;;;7.75;2.00;;;;;22.93;33.51;102015.31;6303412;22;47446;-75
2023/05/20 04:10:22;;;;;;;;;4.00;3.00;;;;;22.91;34.02;102006.69;6305289;22;45408;-75
2023/05/20 04:12:47;;;;;;;;;6.50;3.50;;;;;22.87;34.04;102000.88;6305574;22;45301;-75
2023/05/20 04:15:13;;;;;;;;;4.00;3.50;;;;;22.81;33.79;101990.88;6305474;22;45445;-75
2023/05/20 04:17:39;;;;;;;;;3.67;3.33;;;;;22.80;33.88;101991.88;6304721;22;45979;-75
2023/05/20 04:20:06;;;;;;;;;2.00;2.00;;;;;22.92;33.54;102008.38;6305255;22;45286;-75
2023/05/20 04:22:32;;;;;;;;;4.25;3.00;;;;;22.78;33.90;101993.84;6305237;22;45175;-74
2023/05/20 04:24:58;;;;;;;;;3.50;3.50;;;;;22.90;33.37;102011.16;6305628;22;45246;-75
2023/05/20 04:27:24;;;;;;;;;4.00;3.00;;;;;22.89;34.00;102008.69;6305343;22;45272;-75
2023/05/20 04:29:51;;;;;;;;;3.00;3.00;;;;;22.84;33.55;102012.66;6305057;22;45296;-76
2023/05/20 04:32:17;;;;;;;;;2.00;2.00;;;;;22.89;33.44;102020.13;6305187;22;45308;-75
2023/05/20 04:34:44;;;;;;;;;2.00;2.00;;;;;22.89;34.03;102016.63;6305059;22;45426;-75
2023/05/20 04:37:09;;;;;;;;;3.50;3.50;;;;;22.60;34.00;101973.50;6304891;22;46234;-75
2023/05/20 04:39:35;;;;;;;;;4.67;2.00;;;;;22.89;33.57;102012.16;6304980;22;45254;-75
2023/05/20 04:42:01;;;;;;;;;3.75;3.75;;;;;22.89;34.14;102020.13;6305801;22;45300;-75
2023/05/20 04:44:28;;;;;;;;;3.50;3.00;;;;;22.57;33.71;101963.19;6305141;22;45430;-75
2023/05/20 04:46:54;;;;;;;;;5.75;3.00;;;;;22.60;33.67;101968.19;6304472;22;46213;-76
2023/05/20 04:49:19;;;;;;;;;4.50;3.00;;;;;22.82;34.10;101998.69;6305119;22;45223;-74
2023/05/20 04:51:46;;;;;;;;;5.00;3.00;;;;;22.82;33.57;101996.03;6305617;22;45225;-75
2023/05/20 04:54:12;;;;;;;;;5.00;3.00;;;;;22.87;33.76;102000.88;6304936;22;45502;-75
2023/05/20 04:56:38;;;;;;;;;2.67;2.67;;;;;22.73;33.63;101979.25;6304751;22;46044;-75
2023/05/20 04:59:04;;;;;;;;;5.00;3.25;;;;;22.78;34.08;101969.97;6304948;22;45249;-75
2023/05/20 05:01:29;;;;;;;;;2.00;2.00;;;;;22.68;33.80;101970.91;6305121;22;45229;-75
2023/05/20 05:03:55;;;;;;;;;4.25;4.00;;;;;22.78;34.21;101967.31;6304984;22;45434;-75
2023/05/20 05:06:20;;;;;;;;;4.50;3.00;;;;;22.89;34.12;102000.72;6305268;22;45268;-75
2023/05/20 05:08:46;;;;;;;;;6.50;2.00;;;;;22.88;34.26;101989.25;6305066;22;52226;-75
2023/05/20 05:11:11;;;;;;;;;3.75;3.75;;;;;22.85;34.07;101989.56;6305313;22;45245;-75
2023/05/20 05:13:36;;;;;;;;;3.00;2.00;;;;;22.89;33.58;101998.91;6304957;22;45576;-75
2023/05/20 05:16:02;;;;;;;;;3.75;3.75;;;;;22.88;33.76;101989.25;6304718;22;46478;-75
2023/05/20 05:18:27;;;;;;;;;2.75;2.75;;;;;22.92;33.93;101982.66;6304947;22;45245;-74
2023/05/20 05:21:00;;;;;;;;;4.75;3.00;;;;;22.93;34.10;101981.66;6304929;22;45618;-76
2023/05/20 05:23:26;;;;;;;;;3.00;2.00;;;;;22.92;33.65;101973.88;6305553;22;45242;-76
2023/05/20 05:25:52;;;;;;;;;3.67;3.67;;;;;22.91;34.03;101978.34;6304509;22;46760;-75
2023/05/20 05:28:17;;;;;;;;;3.75;3.00;;;;;22.93;33.71;101981.66;6304877;22;45232;-76
2023/05/20 05:30:43;;;;;;;;;2.00;2.00;;;;;22.84;34.24;101966.69;6305047;22;45248;-75
2023/05/20 05:33:08;;;;;;;;;5.50;3.75;;;;;22.97;34.14;101990.16;6305372;22;45399;-75
2023/05/20 05:35:33;;;;;;;;;2.00;2.00;;;;;22.92;34.12;101976.53;6305006;22;46561;-74
2023/05/20 05:37:59;;;;;;;;;4.00;3.75;;;;;22.96;33.73;101989.31;6304810;22;45600;-75
2023/05/20 05:40:24;;;;;;;;;3.00;3.00;;;;;22.91;33.96;101988.13;6305362;22;45279;-75
2023/05/20 05:42:50;;;;;;;;;2.00;2.00;;;;;22.87;34.34;101969.03;6304978;22;45272;-74
2023/05/20 05:45:15;;;;;;;;;3.25;3.00;;;;;22.96;34.29;101997.28;6304145;22;46006;-75
2023/05/20 05:47:41;;;;;;;;;2.00;2.00;;;;;22.95;34.23;101984.16;6305205;22;45207;-75
2023/05/20 05:50:07;;;;;;;;;3.00;2.75;;;;;22.96;33.64;101989.31;6303806;22;45351;-75
2023/05/20 05:52:32;;;;;;;;;4.00;3.00;;;;;22.87;34.15;101962.91;6304924;22;45372;-76
2023/05/20 05:54:58;;;;;;;;;4.25;2.00;;;;;22.96;34.33;101984.00;6304624;22;46141;-75
2023/05/20 05:57:23;;;;;;;;;5.75;4.00;;;;;22.93;33.89;101973.69;6304789;22;45307;-76
2023/05/20 05:59:49;;;;;;;;;1.50;1.50;;;;;22.92;34.28;101972.06;6304881;22;45237;-75
2023/05/20 06:02:14;;;;;;;;;5.00;3.00;;;;;22.96;33.72;101984.00;6304690;22;45275;-75
2023/05/20 06:04:40;;;;;;;;;4.50;3.00;;;;;22.97;33.93;101984.84;6304606;22;46352;-75
2023/05/20 06:07:05;;;;;;;;;4.25;3.00;;;;;22.98;33.98;101985.69;6305114;22;45305;-77
2023/05/20 06:09:31;;;;;;;;;2.33;1.67;;;;;22.90;34.03;101967.91;6305560;22;45256;-76
2023/05/20 06:11:56;;;;;;;;;5.00;2.75;;;;;22.65;34.46;101927.94;6305298;22;45407;-74
2023/05/20 06:14:21;;;;;;;;;3.67;2.00;;;;;22.85;33.81;101966.53;6304295;22;46316;-75
2023/05/20 06:16:46;;;;;;;;;6.25;4.50;;;;;22.93;34.48;101967.56;6304181;22;45166;-75
2023/05/20 06:19:12;;;;;;;;;3.50;3.00;;;;;22.99;34.13;101977.53;6304851;22;45280;-75
2023/05/20 06:21:37;;;;;;;;;3.75;3.25;;;;;22.96;33.84;101975.19;6305278;22;45189;-75
2023/05/20 06:24:03;;;;;;;;;4.50;3.25;;;;;22.92;34.25;101956.13;6304359;22;46045;-76
2023/05/20 06:26:29;;;;;;;;;2.50;2.50;;;;;22.90;33.91;101952.78;6304564;22;45221;-76
2023/05/20 06:28:54;;;;;;;;;3.00;3.00;;;;;23.02;33.90;101963.13;6304211;22;45269;-75
2023/05/20 06:31:19;;;;;;;;;4.50;4.00;;;;;22.91;33.97;101950.97;6304672;22;45213;-75
2023/05/20 06:33:45;;;;;;;;;4.00;3.00;;;;;23.02;33.93;101966.63;6304795;22;45795;-75
2023/05/20 06:36:10;;;;;;;;;4.67;4.67;;;;;22.99;34.28;101948.34;6305091;22;45210;-75
2023/05/20 06:38:36;;;;;;;;;3.25;2.25;;;;;23.03;34.44;101952.34;6305228;22;45221;-76
2023/05/20 06:41:01;;;;;;;;;4.50;3.00;;;;;22.98;34.01;101948.53;6303112;22;45340;-76
2023/05/20 06:43:26;;;;;;;;;2.33;2.33;;;;;23.06;34.32;101967.94;6304449;22;45280;-76
2023/05/20 06:45:52;;;;;;;;;5.00;4.00;;;;;22.94;34.13;101943.53;6304988;22;45277;-76
2023/05/20 06:48:18;;;;;;;;;4.25;2.50;;;;;23.09;34.01;101964.16;6304672;22;45243;-77
2023/05/20 06:50:44;;;;;;;;;4.00;3.00;;;;;23.07;34.46;101959.00;6304810;22;45341;-76
2023/05/20 06:53:09;;;;;;;;;4.00;4.00;;;;;23.07;34.41;101959.00;6304479;22;46342;-76
2023/05/20 06:55:36;;;;;;;;;5.00;4.00;;;;;23.05;34.06;101949.53;6304971;22;45285;-76
2023/05/20 06:58:02;;;;;;;;;3.00;3.00;;;;;23.01;34.31;101950.84;6305056;22;45220;-76
2023/05/20 07:00:27;;;;;;;;;3.50;3.00;;;;;23.05;34.48;101946.88;6305040;22;45210;-76
2023/05/20 07:02:53;;;;;;;;;3.00;3.00;;;;;23.14;34.12;101958.34;6304798;22;45270;-76
2023/05/20 07:05:18;;;;;;;;;3.00;3.00;;;;;23.11;33.88;101959.50;6304978;22;45237;-77
2023/05/20 07:07:44;;;;;;;;;4.00;3.00;;;;;23.17;34.06;101969.50;6304484;22;45198;-76
2023/05/20 07:10:09;;;;;;;;;2.25;2.00;;;;;23.12;33.80;101961.16;6304965;22;45210;-76
2023/05/20 07:12:35;;;;;;;;;4.25;4.25;;;;;23.07;34.32;101944.91;6304264;22;45909;-75
2023/05/20 07:15:00;;;;;;;;;5.00;3.75;;;;;23.17;33.85;101960.69;6304236;22;45303;-76
2023/05/20 07:17:28;;;;;;;;;4.00;4.00;;;;;23.17;33.91;101958.88;6304955;22;45895;-75
2023/05/20 07:19:54;;;;;;;;;4.00;2.00;;;;;23.17;34.44;101961.53;6304516;22;45316;-76
2023/05/20 07:22:19;;;;;;;;;3.00;3.00;;;;;23.17;34.41;101960.69;6304420;22;45864;-76
2023/05/20 07:24:45;;;;;;;;;3.67;2.00;;;;;23.17;34.29;101944.75;6303779;22;45284;-75
2023/05/20 07:27:10;;;;;;;;;3.00;3.00;;;;;23.18;34.32;101960.53;6304499;22;45283;-75
2023/05/20 07:29:36;;;;;;;;;4.00;3.00;;;;;23.19;34.26;101953.38;6304827;22;45220;-75
2023/05/20 07:32:02;;;;;;;;;2.00;2.00;;;;;23.18;34.27;101946.44;6304276;22;46142;-76
2023/05/20 07:34:27;;;;;;;;;2.67;2.67;;;;;23.21;34.27;101951.44;6304074;22;45148;-76
2023/05/20 07:36:52;;;;;;;;;2.67;2.67;;;;;23.21;34.52;101953.25;6304181;22;45340;-75
2023/05/20 07:39:18;;;;;;;;;3.67;3.67;;;;;23.22;33.89;101953.06;6303899;22;45317;-75
2023/05/20 07:41:43;;;;;;;;;5.75;4.00;;;;;23.22;34.46;101950.41;6303862;22;47199;-76
2023/05/20 07:44:10;;;;;;;;;4.25;4.25;;;;;23.22;34.27;101947.75;6304194;22;45209;-76
2023/05/20 07:46:36;;;;;;;;;4.67;3.00;;;;;23.23;34.46;101945.94;6304175;22;45229;-76
2023/05/20 07:49:02;;;;;;;;;4.00;3.00;;;;;23.22;33.92;101931.00;6304080;22;45297;-75
2023/05/20 07:51:28;;;;;;;;;3.00;3.00;;;;;23.18;34.35;101931.34;6303736;22;46067;-76
2023/05/20 07:53:53;;;;;;;;;5.00;4.00;;;;;23.24;34.40;101929.84;6303312;22;45245;-75
2023/05/20 07:56:19;;;;;;;;;5.25;3.25;;;;;23.25;34.17;101930.69;6304309;22;45278;-76
2023/05/20 07:58:58;;;;;;;;;4.00;4.00;;;;;23.20;34.06;101923.19;6304169;22;45494;-75
2023/05/20 08:01:26;;;;;;;;;2.00;2.00;;;;;23.09;34.54;101905.75;6304222;22;46106;-76
2023/05/20 08:03:52;;;;;;;;;3.00;3.00;;;;;23.13;34.65;101898.31;6302099;22;45322;-75
2023/05/20 08:06:23;;;;;;;;;5.25;4.00;;;;;23.25;34.50;101928.03;6303868;22;45295;-76
2023/05/20 08:08:48;;;;;;;;;3.50;3.50;;;;;23.02;34.39;101881.69;6303523;22;45456;-75
2023/05/20 08:11:13;;;;;;;;;5.25;4.00;;;;;23.18;34.40;101910.09;6303639;22;47037;-75
2023/05/20 08:13:39;;;;;;;;;3.00;3.00;;;;;23.23;34.23;101914.91;6303962;22;45231;-74
2023/05/20 08:16:05;;;;;;;;;6.67;4.33;;;;;23.26;34.09;101917.22;6304068;22;45332;-75
2023/05/20 08:18:39;;;;;;;;;2.00;2.00;;;;;23.23;34.39;101917.56;6304041;22;45448;-76
2023/05/20 08:21:08;;;;;;;;;5.00;5.00;;;;;23.21;34.22;101922.22;6304071;22;46006;-76
2023/05/20 08:23:35;;;;;;;;;3.00;3.00;;;;;23.31;34.07;101938.00;6303176;22;45276;-75
2023/05/20 08:26:01;;;;;;;;;2.00;2.00;;;;;23.33;34.55;101928.03;6303925;22;45264;-76
2023/05/20 08:28:27;;;;;;;;;4.00;4.00;;;;;23.36;33.98;101926.88;6303757;22;45439;-75
2023/05/20 08:30:52;;;;;;;;;5.67;4.00;;;;;23.37;34.24;101924.06;6303894;22;45257;-76
2023/05/20 08:33:18;;;;;;;;;4.00;2.33;;;;;23.33;34.53;101900.66;6303562;22;45315;-75
2023/05/20 08:35:44;;;;;;;;;6.00;3.00;;;;;23.40;34.46;101905.16;6304068;22;45240;-75
2023/05/20 08:38:09;;;;;;;;;3.00;3.00;;;;;23.42;34.14;101920.09;6303474;22;45300;-75
2023/05/20 08:40:35;;;;;;;;;3.00;3.00;;;;;23.32;34.41;101894.50;6305227;22;45229;-76
2023/05/20 08:43:01;;;;;;;;;4.00;3.00;;;;;23.42;34.62;101910.28;6304966;22;45273;-76
2023/05/20 08:45:29;;;;;;;;;3.67;2.67;;;;;23.43;34.02;101913.78;6305761;22;45423;-76
2023/05/20 08:47:56;;;;;;;;;4.00;3.00;;;;;23.37;34.19;101902.81;6305295;22;45415;-76
2023/05/20 08:50:21;;;;;;;;;3.33;3.33;;;;;23.39;34.54;101902.66;6304792;22;47069;-75
2023/05/20 08:52:50;;;;;;;;;5.00;4.00;;;;;23.20;34.35;101863.97;6304727;22;45160;-76
2023/05/20 08:55:48;;;;;;;;;3.00;3.00;;;;;23.42;34.17;101912.13;6305151;22;45262;-76
2023/05/20 08:58:15;;;;;;;;;5.00;4.00;;;;;23.41;34.53;101906.00;6290829;22;45455;-75
2023/05/20 09:00:40;;;;;;;;;4.00;3.00;;;;;23.31;33.97;101890.22;6304768;22;46986;-75
2023/05/20 09:03:06;;;;;;;;;2.33;2.33;;;;;23.32;34.09;101881.22;6304890;22;45276;-76
2023/05/20 09:05:32;;;;;;;;;3.33;3.33;;;;;23.43;34.23;101898.69;6305567;22;45120;-75
2023/05/20 09:08:11;;;;;;;;;3.33;3.33;;;;;23.39;34.16;101889.41;6303113;22;45259;-75
2023/05/20 09:10:38;;;;;;;;;5.00;3.67;;;;;23.42;34.10;101897.00;6304827;22;47061;-75
2023/05/20 09:13:05;;;;;;;;;3.00;3.00;;;;;23.44;33.84;101888.91;6304686;22;45348;-75
2023/05/20 09:15:31;;;;;;;;;3.67;2.00;;;;;23.34;34.11;101887.19;6304877;22;45315;-75
2023/05/20 09:18:02;;;;;;;;;4.67;3.00;;;;;23.44;34.06;101900.34;6305389;22;45364;-77
2023/05/20 09:20:30;;;;;;;;;4.00;3.00;;;;;23.44;34.08;101886.22;6305115;22;45430;-75
2023/05/20 09:23:05;;;;;;;;;4.75;4.00;;;;;23.43;33.88;101897.84;6304236;22;45258;-75
2023/05/20 09:25:31;;;;;;;;;1.00;1.00;;;;;23.44;33.83;101886.22;6305345;22;45268;-75
2023/05/20 09:27:56;;;;;;;;;3.00;3.00;;;;;23.44;33.91;101897.69;6303115;22;45203;-75
2023/05/20 09:30:22;;;;;;;;;3.00;3.00;;;;;23.41;34.19;101890.06;6305062;22;45182;-75
2023/05/20 09:32:55;;;;;;;;;3.00;3.00;;;;;23.41;33.84;101882.09;6305312;22;45293;-75
2023/05/20 09:35:22;;;;;;;;;3.33;2.67;;;;;23.46;33.99;101887.72;6304845;22;45261;-76
2023/05/20 09:37:51;;;;;;;;;3.00;3.00;;;;;23.31;34.08;101862.81;6304858;22;45353;-75
2023/05/20 09:40:20;;;;;;;;;5.00;2.33;;;;;23.43;34.24;101877.44;6304534;22;46095;-75
2023/05/20 09:42:53;;;;;;;;;3.00;3.00;;;;;23.47;34.22;101883.25;6304538;22;45278;-75
2023/05/20 09:45:19;;;;;;;;;4.00;3.00;;;;;23.46;33.72;101879.75;6304953;22;45302;-76
2023/05/20 09:47:46;;;;;;;;;5.00;4.00;;;;;23.45;33.68;101875.44;6304922;22;45274;-76
2023/05/20 09:50:12;;;;;;;;;2.00;2.00;;;;;23.47;34.15;101885.91;6304115;22;45239;-75
2023/05/20 09:52:38;;;;;;;;;2.67;2.67;;;;;23.47;34.07;101886.72;6304369;22;45418;-75
2023/05/20 09:55:09;;;;;;;;;2.00;0.00;;;;;23.47;33.91;101862.81;6304824;22;45314;-75
2023/05/20 09:57:35;;;;;;;;;1.67;1.67;;;;;23.40;33.98;101861.81;6304887;22;45456;-76
2023/05/20 10:00:04;;;;;;;;;2.67;2.67;;;;;23.40;33.90;101859.16;6304498;22;46832;-76
2023/05/20 10:02:30;;;;;;;;;4.00;4.00;;;;;23.48;33.74;101853.03;6304445;22;45305;-76
2023/05/20 10:04:58;;;;;;;;;2.00;2.00;;;;;23.46;34.09;101847.91;6304201;22;45297;-76
2023/05/20 10:08:01;;;;;;;;;4.00;2.00;;;;;23.49;33.60;101855.56;6305340;22;45261;-75
2023/05/20 10:10:54;;;;;;;;;3.00;3.00;;;;;23.50;33.69;101848.41;6304432;22;46187;-76
2023/05/20 10:13:44;;;;;;;;;3.33;3.33;;;;;23.50;34.12;101848.41;6304854;22;45380;-75
2023/05/20 10:16:23;;;;;;;;;0.33;0.33;;;;;23.48;33.98;101842.41;6304770;22;45293;-76
2023/05/20 10:19:19;;;;;;;;;3.00;2.00;;;;;23.52;33.75;101847.25;6304272;22;45400;-75
2023/05/20 10:22:02;;;;;;;;;2.00;2.00;;;;;23.53;33.84;101840.13;6303733;22;68151;-75
2023/05/20 10:24:32;;;;;;;;;2.00;2.00;;;;;23.49;34.11;101836.97;6304419;22;45154;-75
2023/05/20 10:27:00;;;;;;;;;2.25;2.25;;;;;23.42;33.95;101821.84;6305016;22;45379;-75
2023/05/20 10:29:26;;;;;;;;;2.00;2.00;;;;;23.52;33.86;101838.47;6305151;22;45435;-76
2023/05/20 10:31:52;;;;;;;;;1.33;1.33;;;;;23.52;33.38;101836.63;6304385;22;47037;-75
2023/05/20 10:34:20;;;;;;;;;3.00;3.00;;;;;23.42;33.57;101820.00;6304532;22;45266;-75
2023/05/20 10:36:54;;;;;;;;;2.25;2.25;;;;;23.54;33.37;101832.97;6305069;22;45271;-75
2023/05/20 10:39:32;;;;;;;;;3.00;3.00;;;;;23.54;33.26;101836.47;6304630;22;45230;-75
2023/05/20 10:42:07;;;;;;;;;2.00;2.00;;;;;23.54;33.26;101817.03;6304097;22;46409;-75
2023/05/20 10:44:43;;;;;;;;;2.33;2.33;;;;;23.52;33.34;101839.28;6304700;22;45243;-75
2023/05/20 10:47:09;;;;;;;;;4.00;2.50;;;;;23.50;33.52;101820.03;6304427;22;45367;-75
2023/05/20 10:49:35;;;;;;;;;5.75;2.25;;;;;23.48;33.51;101814.03;6304113;22;45355;-75
2023/05/20 10:52:01;;;;;;;;;3.00;3.00;;;;;23.53;33.05;101792.31;6304213;22;46012;-75
2023/05/20 10:54:27;;;;;;;;;3.00;3.00;;;;;23.52;33.46;101815.38;6304696;22;45236;-75
2023/05/20 10:56:53;;;;;;;;;3.00;2.00;;;;;23.48;33.46;101798.09;6304551;22;45305;-75
2023/05/20 10:59:20;;;;;;;;;2.67;2.67;;;;;23.44;33.08;101802.09;6305052;22;45090;-76
2023/05/20 11:01:46;;;;;;;;;3.00;2.00;;;;;23.49;33.19;101793.63;6303983;22;46974;-75
2023/05/20 11:04:13;;;;;;;;;3.00;1.33;;;;;23.41;33.43;101821.00;6303891;22;45354;-75
2023/05/20 11:06:55;;;;;;;;;1.00;1.00;;;;;23.45;33.05;101806.38;6304528;22;45303;-75
2023/05/20 11:09:21;;;;;;;;;4.00;2.67;;;;;23.52;33.36;101823.34;6304522;22;45159;-75
2023/05/20 11:11:48;;;;;;;;;2.00;2.00;;;;;23.53;32.78;101826.84;6304501;22;45285;-75
2023/05/20 11:14:13;;;;;;;;;4.00;3.00;;;;;23.54;32.85;101830.31;6304190;22;45244;-76
2023/05/20 11:16:41;;;;;;;;;3.00;3.00;;;;;23.40;32.67;101785.66;6304312;22;45226;-75
2023/05/20 11:19:08;;;;;;;;;1.67;1.67;;;;;23.33;33.01;101781.16;6304547;22;45278;-75
2023/05/20 11:21:33;;;;;;;;;2.00;2.00;;;;;23.38;32.72;101787.63;6304032;22;46295;-76
2023/05/20 11:23:58;;;;;;;;;2.00;2.00;;;;;23.49;32.57;101786.50;6304796;22;45285;-75